createdAt,value
2018-01-06T08:43:00.436Z,7.30
2018-01-06T08:45:28.018Z,68.33
2018-01-06T08:47:55.615Z,4.60
2018-01-06T08:50:23.170Z,3.90
2018-01-06T08:52:50.805Z,4.00
2018-01-06T08:55:18.434Z,3.90
2018-01-06T08:57:45.989Z,4.50
2018-01-06T09:00:14.438Z,3.40
2018-01-06T09:02:41.984Z,6.30
2018-01-06T09:05:09.523Z,2.40
2018-01-06T09:07:37.154Z,2.77
2018-01-06T09:10:04.724Z,2.63
2018-01-06T09:12:32.338Z,1.97
2018-01-06T09:14:59.938Z,2.50
2018-01-06T09:17:27.562Z,2.20
2018-01-06T09:19:55.196Z,2.30
2018-01-06T09:22:22.759Z,2.53
2018-01-06T09:24:50.433Z,1.97
2018-01-06T09:27:18.063Z,2.47
2018-01-06T09:29:45.622Z,2.67
2018-01-06T09:32:13.259Z,2.40
2018-01-06T09:34:40.821Z,2.50
2018-01-06T09:37:08.522Z,2.23
2018-01-06T09:39:36.115Z,2.40
2018-01-06T09:42:03.678Z,2.40
2018-01-06T09:44:31.251Z,1.87
2018-01-06T09:46:58.872Z,2.17
2018-01-06T09:49:26.486Z,1.70
2018-01-06T09:51:54.112Z,1.90
2018-01-06T09:54:21.734Z,2.43
2018-01-06T09:56:49.310Z,2.60
2018-01-06T09:59:16.879Z,3.97
2018-01-06T10:01:44.556Z,4.03
2018-01-06T10:04:12.121Z,2.57
2018-01-06T10:06:39.736Z,2.57
2018-01-06T10:09:07.316Z,3.40
2018-01-06T10:11:34.882Z,2.57
2018-01-06T10:14:02.609Z,3.00
2018-01-06T10:16:30.205Z,2.77
2018-01-06T10:18:57.773Z,3.50
2018-01-06T10:21:25.347Z,3.03
2018-01-06T10:23:52.976Z,3.43
2018-01-06T10:26:20.593Z,3.80
2018-01-06T10:28:48.221Z,3.50
2018-01-06T10:31:15.840Z,3.87
2018-01-06T10:33:43.419Z,3.80
2018-01-06T10:36:10.995Z,3.40
2018-01-06T10:38:38.676Z,3.47
2018-01-06T10:41:06.244Z,3.07
2018-01-06T10:43:33.848Z,3.47
2018-01-06T10:46:01.416Z,3.50
2018-01-06T10:48:28.982Z,4.27
2018-01-06T10:50:56.626Z,3.23
2018-01-06T10:53:24.242Z,3.27
2018-01-06T10:55:51.805Z,4.00
2018-01-06T10:58:19.431Z,4.80
2018-01-06T11:00:52.686Z,4.07
2018-01-06T11:03:20.307Z,3.40
2018-01-06T11:05:47.874Z,3.63
2018-01-06T11:08:15.448Z,3.40
2018-01-06T11:10:43.023Z,3.23
2018-01-06T11:13:10.582Z,3.10
2018-01-06T11:15:38.297Z,3.20
2018-01-06T11:18:05.872Z,5.17
2018-01-06T11:20:33.431Z,5.17
2018-01-06T11:23:01.010Z,7.30
2018-01-06T11:25:28.575Z,3.73
2018-01-06T11:27:56.280Z,3.20
2018-01-06T11:30:23.908Z,3.83
2018-01-06T11:32:51.470Z,2.73
2018-01-06T11:35:19.023Z,2.90
2018-01-06T11:37:46.644Z,2.90
2018-01-06T11:40:14.286Z,2.43
2018-01-06T11:42:41.859Z,2.60
2018-01-06T11:45:09.495Z,2.90
2018-01-06T11:47:37.131Z,2.37
2018-01-06T11:50:04.854Z,3.30
2018-01-06T11:52:32.560Z,2.80
2018-01-06T11:55:00.182Z,4.40
2018-01-06T11:57:27.760Z,2.83
2018-01-06T11:59:55.340Z,3.10
2018-01-06T12:02:22.967Z,3.17
2018-01-06T12:04:50.586Z,2.90
2018-01-06T12:07:18.149Z,3.20
2018-01-06T12:09:45.710Z,3.10
2018-01-06T12:12:13.347Z,3.77
2018-01-06T12:14:40.924Z,3.50
2018-01-06T12:17:08.560Z,3.03
2018-01-06T12:19:36.184Z,8.47
2018-01-06T12:22:03.751Z,3.60
2018-01-06T12:24:31.328Z,10.60
2018-01-06T12:26:58.879Z,5.00
2018-01-06T12:29:26.595Z,10.23
2018-01-06T12:31:54.162Z,3.03
2018-01-06T12:34:21.726Z,3.60
2018-01-06T12:36:49.358Z,3.07
2018-01-06T12:39:16.938Z,3.70
2018-01-06T12:41:44.559Z,3.03
2018-01-06T12:44:12.135Z,3.60
2018-01-06T12:46:39.759Z,2.50
2018-01-06T12:49:07.339Z,4.63
2018-01-06T12:51:34.948Z,2.87
2018-01-06T12:54:02.571Z,2.67
2018-01-06T12:56:30.186Z,2.60
2018-01-06T12:58:57.757Z,2.40
2018-01-06T13:01:25.396Z,3.77
2018-01-06T13:03:53.022Z,4.40
2018-01-06T13:06:20.668Z,5.80
2018-01-06T13:08:48.332Z,4.10
2018-01-06T13:11:15.909Z,5.70
2018-01-06T13:13:43.482Z,3.10
2018-01-06T13:16:11.052Z,4.93
2018-01-06T13:18:38.676Z,3.27
2018-01-06T13:21:06.286Z,2.60
2018-01-06T13:23:33.914Z,3.93
2018-01-06T13:26:01.540Z,4.03
2018-01-06T13:28:29.103Z,4.27
2018-01-06T13:30:56.729Z,9.50
2018-01-06T13:33:24.362Z,4.87
2018-01-06T13:35:51.946Z,30.17
2018-01-06T13:38:19.513Z,8.07
2018-01-06T13:40:47.124Z,7.37
2018-01-06T13:43:14.781Z,7.80
2018-01-06T13:45:42.331Z,10.50
2018-01-06T13:48:09.898Z,20.67
2018-01-06T13:50:37.476Z,27.00
2018-01-06T13:53:05.052Z,20.90
2018-01-06T13:55:32.706Z,15.73
2018-01-06T13:58:00.282Z,13.37
2018-01-06T14:00:27.918Z,13.90
2018-01-06T14:02:55.539Z,16.10
2018-01-06T14:05:23.144Z,15.07
2018-01-06T14:07:50.762Z,13.60
2018-01-06T14:10:18.332Z,13.43
2018-01-06T14:12:46.012Z,12.90
2018-01-06T14:15:13.599Z,14.70
2018-01-06T14:17:41.275Z,17.47
2018-01-06T14:20:08.930Z,18.83
2018-01-06T14:22:36.503Z,34.33
2018-01-06T14:25:04.080Z,39.00
2018-01-06T14:27:31.664Z,35.10
2018-01-06T14:29:59.243Z,44.50
2018-01-06T14:32:26.894Z,46.00
2018-01-06T14:34:54.466Z,46.43
2018-01-06T14:37:22.035Z,38.23
2018-01-06T14:39:49.678Z,34.40
2018-01-06T14:42:17.248Z,34.30
2018-01-06T14:44:44.983Z,34.60
2018-01-06T14:47:12.666Z,44.37
2018-01-06T14:49:40.234Z,47.40
2018-01-06T14:52:07.861Z,49.13
2018-01-06T14:54:35.432Z,61.77
2018-01-06T14:57:03.152Z,51.57
2018-01-06T14:59:30.787Z,56.10
2018-01-06T15:01:58.361Z,66.77
2018-01-06T15:04:25.969Z,74.37
2018-01-06T15:06:53.553Z,68.10
2018-01-06T15:09:21.260Z,67.57
2018-01-06T15:11:48.891Z,88.10
2018-01-06T15:14:16.537Z,79.60
2018-01-06T15:16:44.123Z,68.20
2018-01-06T15:19:11.708Z,65.70
2018-01-06T15:21:39.391Z,58.53
2018-01-06T15:24:07.052Z,47.30
2018-01-06T15:26:34.630Z,56.60
2018-01-06T15:29:02.856Z,55.53
2018-01-06T15:31:30.433Z,56.17
2018-01-06T15:33:58.049Z,44.70
2018-01-06T15:36:25.622Z,50.60
2018-01-06T15:38:53.246Z,38.70
2018-01-06T15:41:20.819Z,32.37
2018-01-06T15:43:48.385Z,23.87
2018-01-06T15:46:16.006Z,19.60
2018-01-06T15:48:43.575Z,10.37
2018-01-06T15:51:11.192Z,12.00
2018-01-06T15:53:38.835Z,17.97
2018-01-06T15:56:06.466Z,9.80
2018-01-06T15:58:34.086Z,14.57
2018-01-06T16:01:01.658Z,17.73
2018-01-06T16:03:29.227Z,18.97
2018-01-06T16:05:56.806Z,17.73
2018-01-06T16:08:24.378Z,19.57
2018-01-06T16:10:52.002Z,21.20
2018-01-06T16:13:19.578Z,15.70
2018-01-06T16:15:47.151Z,15.07
2018-01-06T16:18:14.725Z,17.87
2018-01-06T16:20:42.314Z,17.60
2018-01-06T16:23:09.939Z,18.77
2018-01-06T16:25:37.511Z,17.43
2018-01-06T16:28:05.140Z,13.27
2018-01-06T16:30:32.775Z,25.97
2018-01-06T16:33:00.355Z,22.80
2018-01-06T16:35:27.982Z,22.30
2018-01-06T16:37:55.562Z,40.20
2018-01-06T16:40:23.199Z,46.50
2018-01-06T16:42:50.782Z,46.23
2018-01-06T16:45:18.419Z,48.47
2018-01-06T16:47:46.041Z,58.30
2018-01-06T16:50:13.610Z,47.70
2018-01-06T16:52:41.198Z,44.43
2018-01-06T16:55:08.783Z,13.90
2018-01-06T16:57:36.361Z,33.60
2018-01-06T17:00:03.992Z,19.70
2018-01-06T17:02:31.538Z,11.63
2018-01-06T17:04:59.114Z,23.13
2018-01-06T17:07:26.701Z,15.13
2018-01-06T17:09:54.343Z,13.30
2018-01-06T17:12:21.985Z,7.57
2018-01-06T17:14:49.614Z,8.00
2018-01-06T17:17:17.234Z,8.27
2018-01-06T17:19:44.887Z,5.10
2018-01-06T17:22:12.474Z,3.70
2018-01-06T17:24:40.100Z,4.60
2018-01-06T17:27:07.740Z,87.30
2018-01-06T17:29:35.298Z,3.80
2018-01-06T17:32:02.871Z,2.50
2018-01-06T17:34:30.516Z,5.20
2018-01-06T17:36:58.166Z,3.23
2018-01-06T17:39:25.800Z,3.10
2018-01-06T17:41:53.427Z,2.43
2018-01-06T17:44:21.012Z,2.67
2018-01-06T17:46:48.576Z,3.30
2018-01-06T17:49:16.197Z,2.47
2018-01-06T17:51:43.761Z,3.23
2018-01-06T17:54:11.392Z,4.10
2018-01-06T17:56:39.007Z,3.40
2018-01-06T17:59:06.551Z,4.27
2018-01-06T18:01:34.167Z,4.93
2018-01-06T18:04:01.801Z,4.90
2018-01-06T18:06:29.371Z,4.37
2018-01-06T18:08:56.952Z,3.20
2018-01-06T18:11:24.540Z,5.93
2018-01-06T18:13:52.219Z,7.20
2018-01-06T18:16:19.787Z,3.70
2018-01-06T18:18:47.411Z,3.27
2018-01-06T18:21:15.043Z,4.13
2018-01-06T18:23:42.584Z,3.63
2018-01-06T18:26:10.208Z,3.00
2018-01-06T18:28:37.770Z,2.80
2018-01-06T18:31:05.341Z,2.93
2018-01-06T18:33:32.897Z,3.20
2018-01-06T18:36:00.458Z,4.13
2018-01-06T18:38:28.110Z,3.40
2018-01-06T18:40:55.743Z,2.93
2018-01-06T18:43:23.302Z,4.37
2018-01-06T18:45:50.911Z,11.20
2018-01-06T18:48:18.542Z,10.50
2018-01-06T18:50:46.170Z,9.03
2018-01-06T18:53:13.739Z,16.07
2018-01-06T18:55:41.302Z,20.80
2018-01-06T18:58:08.854Z,18.80
2018-01-06T19:00:36.399Z,6.50
2018-01-06T19:03:04.028Z,23.87
2018-01-06T19:05:31.659Z,24.50
2018-01-06T19:07:59.235Z,23.30
2018-01-06T19:10:26.829Z,30.17
2018-01-06T19:12:54.398Z,29.60
2018-01-06T19:15:22.014Z,25.03
2018-01-06T19:17:49.588Z,27.60
2018-01-06T19:20:17.159Z,25.93
2018-01-06T19:22:44.735Z,24.37
2018-01-06T19:25:12.299Z,31.73
2018-01-06T19:27:39.945Z,27.17
2018-01-06T19:30:07.518Z,28.23
2018-01-06T19:32:35.078Z,42.80
2018-01-06T19:35:02.686Z,39.07
2018-01-06T19:37:30.255Z,37.83
2018-01-06T19:39:57.912Z,37.90
2018-01-06T19:42:25.482Z,54.00
2018-01-06T19:44:53.060Z,51.97
2018-01-06T19:47:20.635Z,53.07
2018-01-06T19:49:48.205Z,44.47
2018-01-06T19:52:15.896Z,48.60
2018-01-06T19:54:43.467Z,54.53
2018-01-06T19:57:11.018Z,60.30
2018-01-06T19:59:38.654Z,57.40
2018-01-06T20:02:06.222Z,57.60
2018-01-06T20:04:33.848Z,54.40
2018-01-06T20:07:01.422Z,56.30
2018-01-06T20:09:29.052Z,58.90
2018-01-06T20:11:56.634Z,47.13
2018-01-06T20:14:24.219Z,42.67
2018-01-06T20:16:51.842Z,47.93
2018-01-06T20:19:19.433Z,41.87
2018-01-06T20:21:47.006Z,28.20
2018-01-06T20:24:14.578Z,19.47
2018-01-06T20:26:42.138Z,18.93
2018-01-06T20:29:09.814Z,22.73
2018-01-06T20:31:37.440Z,22.00
2018-01-06T20:34:05.078Z,21.03
2018-01-06T20:36:32.715Z,29.03
2018-01-06T20:39:00.344Z,21.80
2018-01-06T20:41:27.948Z,27.33
2018-01-06T20:43:55.510Z,25.33
2018-01-06T20:46:23.095Z,37.83
2018-01-06T20:48:50.667Z,26.73
2018-01-06T20:51:18.244Z,25.07
2018-01-06T20:53:45.917Z,22.63
2018-01-06T20:56:13.455Z,20.83
2018-01-06T20:58:41.026Z,21.50
2018-01-06T21:01:08.601Z,22.73
2018-01-06T21:03:36.223Z,21.40
2018-01-06T21:06:03.834Z,18.40
2018-01-06T21:08:31.468Z,22.07
2018-01-06T21:10:59.039Z,21.80
2018-01-06T21:13:26.619Z,24.13
2018-01-06T21:15:54.194Z,30.37
2018-01-06T21:18:21.825Z,28.40
2018-01-06T21:20:49.428Z,38.43
2018-01-06T21:23:17.076Z,45.30
2018-01-06T21:25:44.658Z,51.10
2018-01-06T21:28:12.236Z,46.20
2018-01-06T21:30:39.951Z,47.30
2018-01-06T21:33:07.530Z,53.60
2018-01-06T21:35:35.158Z,56.80
2018-01-06T21:38:02.796Z,55.00
2018-01-06T21:40:30.363Z,57.60
2018-01-06T21:42:57.991Z,55.27
2018-01-06T21:45:25.655Z,56.17
2018-01-06T21:47:53.296Z,53.40
2018-01-06T21:50:20.874Z,54.93
2018-01-06T21:52:48.442Z,54.83
2018-01-06T21:55:16.071Z,54.90
2018-01-06T21:57:43.659Z,52.40
2018-01-06T22:00:11.311Z,51.60
2018-01-06T22:02:38.897Z,55.60
2018-01-06T22:05:06.471Z,58.27
2018-01-06T22:07:34.174Z,56.70
2018-01-06T22:10:01.738Z,55.40
2018-01-06T22:12:29.377Z,56.03
2018-01-06T22:14:57.019Z,54.10
2018-01-06T22:17:24.588Z,54.30
2018-01-06T22:19:52.219Z,50.97
2018-01-06T22:22:19.849Z,46.30
2018-01-06T22:24:47.419Z,42.73
2018-01-06T22:27:15.051Z,39.97
2018-01-06T22:29:42.622Z,36.77
2018-01-06T22:32:10.364Z,42.10
2018-01-06T22:34:37.934Z,37.77
2018-01-06T22:37:05.554Z,36.80
2018-01-06T22:39:33.186Z,41.07
2018-01-06T22:42:00.811Z,40.03
2018-01-06T22:44:28.415Z,35.37
2018-01-06T22:46:55.979Z,31.03
2018-01-06T22:49:23.544Z,32.67
2018-01-06T22:51:51.113Z,27.20
2018-01-06T22:54:18.679Z,33.37
2018-01-06T22:56:46.365Z,26.87
2018-01-06T22:59:13.957Z,29.70
2018-01-06T23:01:41.532Z,28.10
2018-01-06T23:04:09.107Z,29.73
2018-01-06T23:06:36.671Z,26.57
2018-01-06T23:09:04.382Z,23.80
2018-01-06T23:11:31.992Z,23.13
2018-01-06T23:13:59.552Z,24.20
2018-01-06T23:16:27.117Z,27.40
2018-01-06T23:18:54.679Z,34.17
2018-01-06T23:21:22.294Z,28.83
2018-01-06T23:23:49.864Z,26.27
2018-01-06T23:26:17.407Z,22.10
2018-01-06T23:28:45.038Z,23.80
2018-01-06T23:31:12.665Z,25.27
2018-01-06T23:33:40.283Z,25.07
2018-01-06T23:36:07.827Z,23.27
2018-01-06T23:38:35.402Z,19.47
2018-01-06T23:41:03.038Z,24.10
2018-01-06T23:43:30.714Z,22.63
2018-01-06T23:45:58.418Z,24.40
2018-01-06T23:48:26.040Z,24.57
2018-01-06T23:50:53.661Z,26.00
2018-01-06T23:53:21.242Z,26.13
2018-01-06T23:55:48.807Z,33.80
2018-01-06T23:58:16.436Z,28.27
